Time;durP1;ratioP1;P1;durP2;ratioP2;P2;SDS_P1;SDS_P2;PMS_P1;PMS_P2;Temp;Humidity;BMP_temperature;BMP_pressure;BME280_temperature;BME280_humidity;BME280_pressure;Samples;Min_cycle;Max_cycle;Signal;HPM_P1;HPM_P2
2023/12/28 00:00:28;;;;;;;77.65;43.42;;;;;;;;;;4970492;28;20033;-71
2023/12/28 00:02:54;;;;;;;93.25;41.30;;;;;;;;;;4972136;28;20402;-70
2023/12/28 00:05:19;;;;;;;84.65;43.20;;;;;;;;;;4972511;28;20053;-70
2023/12/28 00:07:45;;;;;;;91.22;47.40;;;;;;;;;;4973518;28;20026;-70
2023/12/28 00:10:11;;;;;;;95.15;47.70;;;;;;;;;;4974163;28;20038;-72
2023/12/28 00:12:36;;;;;;;77.82;41.33;;;;;;;;;;4974104;28;20031;-71
2023/12/28 00:15:02;;;;;;;81.30;44.10;;;;;;;;;;4973691;28;20085;-71
2023/12/28 00:17:28;;;;;;;118.78;49.00;;;;;;;;;;4967032;28;20018;-70
2023/12/28 00:19:54;;;;;;;88.03;43.67;;;;;;;;;;4973119;28;20231;-70
2023/12/28 00:22:20;;;;;;;79.95;44.50;;;;;;;;;;4973733;28;20030;-70
2023/12/28 00:24:45;;;;;;;80.60;43.25;;;;;;;;;;4968702;28;20384;-70
2023/12/28 00:27:11;;;;;;;81.35;43.55;;;;;;;;;;4974235;28;20089;-71
2023/12/28 00:29:38;;;;;;;82.00;43.42;;;;;;;;;;4973983;28;20038;-71
2023/12/28 00:32:07;;;;;;;85.05;46.85;;;;;;;;;;4974102;28;20030;-71
2023/12/28 00:34:33;;;;;;;88.78;46.95;;;;;;;;;;4973443;28;20469;-70
2023/12/28 00:36:58;;;;;;;92.65;49.38;;;;;;;;;;4972671;28;20045;-69
2023/12/28 00:39:24;;;;;;;103.28;47.35;;;;;;;;;;4974077;28;20027;-70
2023/12/28 00:41:50;;;;;;;91.28;48.60;;;;;;;;;;4973379;28;20034;-72
2023/12/28 00:44:15;;;;;;;88.57;46.42;;;;;;;;;;4971461;28;20069;-70
2023/12/28 00:46:42;;;;;;;89.03;44.40;;;;;;;;;;4970881;28;20038;-70
2023/12/28 00:49:08;;;;;;;87.20;45.80;;;;;;;;;;4972636;28;20022;-70
2023/12/28 00:51:34;;;;;;;85.53;46.25;;;;;;;;;;4972628;28;20034;-70
2023/12/28 00:53:59;;;;;;;84.30;43.58;;;;;;;;;;4972361;28;20118;-70
2023/12/28 00:56:25;;;;;;;87.72;45.10;;;;;;;;;;4972695;28;20125;-70
2023/12/28 00:58:51;;;;;;;75.78;44.67;;;;;;;;;;4972654;28;20461;-70
2023/12/28 01:01:18;;;;;;;88.10;45.20;;;;;;;;;;4973766;28;20046;-70
2023/12/28 01:03:43;;;;;;;84.70;45.58;;;;;;;;;;4972034;28;20112;-70
2023/12/28 01:06:09;;;;;;;80.68;44.13;;;;;;;;;;4972393;28;20117;-70
2023/12/28 01:08:35;;;;;;;88.13;47.28;;;;;;;;;;4972357;28;20098;-70
2023/12/28 01:11:01;;;;;;;89.20;42.58;;;;;;;;;;4973786;28;20026;-70
2023/12/28 01:13:28;;;;;;;81.70;45.05;;;;;;;;;;4972164;28;20117;-71
2023/12/28 01:15:54;;;;;;;80.43;44.20;;;;;;;;;;4973635;28;20085;-70
2023/12/28 01:18:19;;;;;;;92.05;45.33;;;;;;;;;;4952954;28;20065;-70
2023/12/28 01:20:45;;;;;;;84.90;44.03;;;;;;;;;;4953756;28;20437;-71
2023/12/28 01:23:11;;;;;;;79.55;41.75;;;;;;;;;;4972422;28;20039;-71
2023/12/28 01:25:37;;;;;;;73.00;40.00;;;;;;;;;;4965485;28;20019;-70
2023/12/28 01:28:04;;;;;;;75.55;40.25;;;;;;;;;;4971924;28;20408;-71
2023/12/28 01:30:31;;;;;;;74.85;40.13;;;;;;;;;;4973528;28;20035;-70
2023/12/28 01:32:57;;;;;;;73.55;38.50;;;;;;;;;;4971888;28;20272;-70
2023/12/28 01:35:22;;;;;;;75.38;42.30;;;;;;;;;;4969417;28;20114;-70
2023/12/28 01:37:48;;;;;;;76.93;42.80;;;;;;;;;;4973227;28;20040;-70
2023/12/28 01:40:17;;;;;;;79.80;43.70;;;;;;;;;;4973450;28;20417;-72
2023/12/28 01:42:42;;;;;;;78.55;42.38;;;;;;;;;;4972193;28;20121;-71
2023/12/28 01:45:08;;;;;;;76.07;41.67;;;;;;;;;;4971886;28;20577;-71
2023/12/28 01:47:34;;;;;;;76.55;42.05;;;;;;;;;;4971584;28;20134;-71
2023/12/28 01:50:00;;;;;;;77.25;42.88;;;;;;;;;;4972670;28;20069;-71
2023/12/28 01:52:27;;;;;;;77.32;43.42;;;;;;;;;;4971700;28;20034;-71
2023/12/28 01:54:53;;;;;;;72.85;43.00;;;;;;;;;;4970525;28;20066;-71
2023/12/28 01:57:19;;;;;;;68.50;37.67;;;;;;;;;;4971914;28;20473;-71
2023/12/28 01:59:45;;;;;;;71.03;40.53;;;;;;;;;;4971836;28;20412;-71
2023/12/28 02:02:11;;;;;;;75.57;41.25;;;;;;;;;;4971743;28;20038;-69
2023/12/28 02:04:37;;;;;;;68.43;36.80;;;;;;;;;;4972997;28;20037;-70
2023/12/28 02:07:03;;;;;;;67.75;40.00;;;;;;;;;;4971911;28;20042;-70
2023/12/28 02:09:28;;;;;;;70.22;40.35;;;;;;;;;;4972122;28;20050;-70
2023/12/28 02:11:54;;;;;;;60.80;36.17;;;;;;;;;;4972348;28;20065;-71
2023/12/28 02:14:22;;;;;;;70.03;35.03;;;;;;;;;;4971555;28;20039;-70
2023/12/28 02:17:00;;;;;;;62.20;36.50;;;;;;;;;;4971359;28;20035;-70
2023/12/28 02:19:43;;;;;;;62.35;37.83;;;;;;;;;;4971511;28;20030;-71
2023/12/28 02:22:12;;;;;;;58.97;36.55;;;;;;;;;;4971533;28;20039;-70
2023/12/28 02:25:06;;;;;;;66.88;37.97;;;;;;;;;;4971371;28;20015;-71
2023/12/28 02:27:46;;;;;;;66.03;38.20;;;;;;;;;;4972792;28;20030;-71
2023/12/28 02:30:14;;;;;;;60.78;35.85;;;;;;;;;;4972905;28;20385;-70
2023/12/28 02:32:45;;;;;;;62.38;37.15;;;;;;;;;;4971358;28;20039;-70
2023/12/28 02:35:20;;;;;;;56.60;31.63;;;;;;;;;;4971381;28;20027;-70
2023/12/28 02:37:52;;;;;;;52.13;31.65;;;;;;;;;;4971334;28;20276;-70
2023/12/28 02:40:19;;;;;;;45.45;29.08;;;;;;;;;;4971551;28;20038;-71
2023/12/28 02:42:44;;;;;;;38.80;25.90;;;;;;;;;;4971246;28;20029;-71
2023/12/28 02:45:10;;;;;;;37.92;24.98;;;;;;;;;;4969515;28;20027;-71
2023/12/28 02:47:36;;;;;;;36.50;24.33;;;;;;;;;;4971384;28;20054;-71
2023/12/28 02:50:02;;;;;;;38.47;23.55;;;;;;;;;;4970176;28;20505;-71
2023/12/28 02:52:28;;;;;;;37.80;25.10;;;;;;;;;;4968042;28;20501;-71
2023/12/28 02:54:53;;;;;;;40.15;27.30;;;;;;;;;;4970180;28;20047;-71
2023/12/28 02:57:20;;;;;;;39.05;27.13;;;;;;;;;;4960986;28;20027;-71
2023/12/28 02:59:46;;;;;;;36.00;25.15;;;;;;;;;;4968980;28;20027;-70
2023/12/28 03:02:11;;;;;;;42.65;27.45;;;;;;;;;;4964755;28;20027;-70
2023/12/28 03:04:37;;;;;;;47.58;27.08;;;;;;;;;;4971218;28;20018;-71
2023/12/28 03:07:04;;;;;;;47.78;27.20;;;;;;;;;;4958635;28;20038;-70
2023/12/28 03:09:30;;;;;;;45.40;25.45;;;;;;;;;;4974719;28;20093;-70
2023/12/28 03:11:55;;;;;;;46.47;26.38;;;;;;;;;;4974482;28;20113;-70
2023/12/28 03:14:21;;;;;;;41.83;25.95;;;;;;;;;;4974603;28;20043;-70
2023/12/28 03:16:47;;;;;;;41.80;25.83;;;;;;;;;;4976175;28;20031;-71
2023/12/28 03:19:12;;;;;;;42.60;23.88;;;;;;;;;;4999401;28;20018;-71
2023/12/28 03:21:40;;;;;;;43.65;24.02;;;;;;;;;;4974303;28;20125;-70
2023/12/28 03:24:06;;;;;;;41.97;24.30;;;;;;;;;;4975474;28;20046;-70
2023/12/28 03:26:34;;;;;;;38.42;23.45;;;;;;;;;;4974248;28;20046;-70
2023/12/28 03:29:02;;;;;;;40.42;22.05;;;;;;;;;;4972851;28;20133;-70
2023/12/28 03:31:27;;;;;;;48.20;22.20;;;;;;;;;;4975472;28;20154;-71
2023/12/28 03:33:54;;;;;;;34.92;23.05;;;;;;;;;;4975502;28;20114;-71
2023/12/28 03:36:20;;;;;;;44.05;25.25;;;;;;;;;;4974295;28;20585;-70
2023/12/28 03:38:46;;;;;;;43.63;25.33;;;;;;;;;;4974037;28;20042;-70
2023/12/28 03:41:19;;;;;;;43.28;22.73;;;;;;;;;;4973971;28;20026;-70
2023/12/28 03:43:45;;;;;;;35.25;21.20;;;;;;;;;;4973887;28;20034;-70
2023/12/28 03:46:12;;;;;;;40.72;21.48;;;;;;;;;;4973735;28;20038;-70
2023/12/28 03:48:37;;;;;;;41.85;23.48;;;;;;;;;;4975236;28;20026;-71
2023/12/28 03:51:04;;;;;;;46.67;23.50;;;;;;;;;;4956356;28;20042;-72
2023/12/28 03:53:33;;;;;;;39.53;21.40;;;;;;;;;;4973763;28;20035;-71
2023/12/28 03:55:59;;;;;;;34.72;21.73;;;;;;;;;;4973680;28;20062;-70
2023/12/28 03:58:25;;;;;;;42.30;24.20;;;;;;;;;;4974975;28;20114;-71
2023/12/28 04:00:54;;;;;;;46.35;25.65;;;;;;;;;;4973061;28;20031;-71
2023/12/28 04:03:20;;;;;;;44.13;25.38;;;;;;;;;;4973354;28;20434;-71
2023/12/28 04:05:46;;;;;;;48.25;25.15;;;;;;;;;;4974508;28;20035;-71
2023/12/28 04:08:12;;;;;;;37.80;22.83;;;;;;;;;;4973547;28;20031;-71
2023/12/28 04:10:39;;;;;;;41.75;26.00;;;;;;;;;;4973385;28;20113;-71
2023/12/28 04:13:04;;;;;;;39.60;23.48;;;;;;;;;;4974504;28;20038;-70
2023/12/28 04:15:30;;;;;;;44.03;24.73;;;;;;;;;;4973117;28;20453;-70
2023/12/28 04:17:57;;;;;;;39.70;25.50;;;;;;;;;;4972175;28;20121;-70
2023/12/28 04:20:23;;;;;;;54.40;30.35;;;;;;;;;;4974356;28;20043;-70
2023/12/28 04:22:49;;;;;;;47.33;28.55;;;;;;;;;;4973116;28;20397;-70
2023/12/28 04:25:18;;;;;;;49.13;30.90;;;;;;;;;;4972970;28;20025;-70
2023/12/28 04:27:44;;;;;;;79.10;39.05;;;;;;;;;;4973216;28;20031;-70
2023/12/28 04:30:13;;;;;;;74.40;38.15;;;;;;;;;;4972966;28;20386;-70
2023/12/28 04:32:39;;;;;;;74.50;38.22;;;;;;;;;;4973165;28;20077;-70
2023/12/28 04:35:05;;;;;;;60.58;34.17;;;;;;;;;;4973763;28;20114;-72
2023/12/28 04:37:32;;;;;;;88.78;34.40;;;;;;;;;;5005195;28;20038;-72
2023/12/28 04:39:58;;;;;;;70.82;34.28;;;;;;;;;;4972738;28;20031;-71
2023/12/28 04:42:24;;;;;;;64.07;30.25;;;;;;;;;;4972937;28;20102;-72
2023/12/28 04:44:50;;;;;;;64.40;32.25;;;;;;;;;;4972308;28;20041;-71
2023/12/28 04:47:16;;;;;;;70.35;31.48;;;;;;;;;;4972736;28;20022;-72
2023/12/28 04:49:41;;;;;;;70.47;32.08;;;;;;;;;;4972707;28;20034;-70
2023/12/28 04:52:07;;;;;;;77.95;33.75;;;;;;;;;;4973511;28;20046;-70
2023/12/28 04:54:33;;;;;;;80.57;33.90;;;;;;;;;;4973447;28;20094;-70
2023/12/28 04:56:59;;;;;;;62.25;31.33;;;;;;;;;;4972059;28;20134;-70
2023/12/28 04:59:25;;;;;;;62.05;30.00;;;;;;;;;;4972100;28;20508;-71
2023/12/28 05:01:51;;;;;;;57.15;29.48;;;;;;;;;;4972121;28;20034;-71
2023/12/28 05:04:17;;;;;;;72.10;30.40;;;;;;;;;;4971859;28;20109;-70
2023/12/28 05:06:43;;;;;;;82.03;30.15;;;;;;;;;;4973623;28;20027;-70
2023/12/28 05:09:08;;;;;;;62.42;31.30;;;;;;;;;;4972004;28;20393;-71
2023/12/28 05:11:34;;;;;;;61.92;31.83;;;;;;;;;;4972154;28;20086;-71
2023/12/28 05:14:00;;;;;;;57.00;32.10;;;;;;;;;;4971533;28;20030;-70
2023/12/28 05:16:25;;;;;;;58.63;30.40;;;;;;;;;;4973216;28;20026;-71
2023/12/28 05:18:52;;;;;;;69.78;30.60;;;;;;;;;;4973109;28;20038;-70
2023/12/28 05:21:18;;;;;;;71.28;28.35;;;;;;;;;;4973424;28;20037;-70
2023/12/28 05:23:44;;;;;;;63.05;31.15;;;;;;;;;;4972958;28;20034;-70
2023/12/28 05:26:09;;;;;;;70.22;31.58;;;;;;;;;;4973259;28;20118;-70
2023/12/28 05:28:35;;;;;;;69.35;30.60;;;;;;;;;;4972752;28;20027;-70
2023/12/28 05:31:00;;;;;;;70.93;31.08;;;;;;;;;;4973205;28;20041;-71
2023/12/28 05:33:26;;;;;;;59.33;30.45;;;;;;;;;;4972683;28;20528;-70
2023/12/28 05:35:52;;;;;;;62.15;29.60;;;;;;;;;;4972662;28;20023;-70
2023/12/28 05:38:18;;;;;;;55.55;29.40;;;;;;;;;;4972940;28;20050;-70
2023/12/28 05:40:47;;;;;;;54.58;28.10;;;;;;;;;;4969299;28;20041;-70
2023/12/28 05:43:12;;;;;;;65.03;29.63;;;;;;;;;;4971500;28;20054;-71
2023/12/28 05:45:38;;;;;;;48.35;25.73;;;;;;;;;;4972638;28;20485;-71
2023/12/28 05:48:04;;;;;;;59.35;26.65;;;;;;;;;;4972490;28;20035;-71
2023/12/28 05:50:30;;;;;;;57.00;26.60;;;;;;;;;;4972654;28;20162;-71
2023/12/28 05:52:56;;;;;;;53.95;27.17;;;;;;;;;;4972608;28;20035;-71
2023/12/28 05:55:22;;;;;;;53.25;25.75;;;;;;;;;;4972121;28;20090;-71
2023/12/28 05:57:48;;;;;;;53.20;26.45;;;;;;;;;;4970896;28;20026;-71
2023/12/28 06:00:14;;;;;;;56.40;26.25;;;;;;;;;;4968861;28;20122;-71
2023/12/28 06:02:41;;;;;;;55.47;27.58;;;;;;;;;;4971035;28;20042;-71
2023/12/28 06:05:07;;;;;;;52.85;26.75;;;;;;;;;;4972111;28;20015;-71
2023/12/28 06:07:33;;;;;;;52.03;27.58;;;;;;;;;;4972409;28;20110;-70
2023/12/28 06:09:59;;;;;;;55.17;28.23;;;;;;;;;;4971175;28;20039;-70
2023/12/28 06:12:25;;;;;;;49.42;25.38;;;;;;;;;;4972424;28;20035;-71
2023/12/28 06:14:50;;;;;;;39.80;24.08;;;;;;;;;;4972353;28;20027;-70
2023/12/28 06:17:18;;;;;;;58.58;27.05;;;;;;;;;;4971988;28;20034;-70
2023/12/28 06:19:44;;;;;;;43.72;24.13;;;;;;;;;;4972356;28;20034;-71
2023/12/28 06:22:10;;;;;;;47.13;24.77;;;;;;;;;;4972051;28;20101;-71
2023/12/28 06:24:40;;;;;;;56.72;24.75;;;;;;;;;;4972105;28;20118;-71
2023/12/28 06:27:06;;;;;;;47.05;26.05;;;;;;;;;;4972221;28;20649;-72
2023/12/28 06:29:31;;;;;;;50.92;24.88;;;;;;;;;;4972718;28;20048;-71
2023/12/28 06:31:58;;;;;;;48.65;25.50;;;;;;;;;;4971855;28;20035;-71
2023/12/28 06:34:25;;;;;;;43.53;25.10;;;;;;;;;;4994441;28;20027;-71
2023/12/28 06:36:52;;;;;;;66.80;27.15;;;;;;;;;;4969961;28;20059;-71
2023/12/28 06:39:18;;;;;;;43.67;24.98;;;;;;;;;;4971971;28;20432;-71
2023/12/28 06:41:48;;;;;;;65.40;27.55;;;;;;;;;;4990212;28;20041;-70
2023/12/28 06:44:14;;;;;;;61.38;28.13;;;;;;;;;;4973903;28;20039;-71
2023/12/28 06:46:40;;;;;;;55.03;26.60;;;;;;;;;;4975326;28;20045;-72
2023/12/28 06:49:06;;;;;;;51.22;21.55;;;;;;;;;;4984824;28;20019;-71
2023/12/28 06:51:33;;;;;;;42.33;19.95;;;;;;;;;;4976108;28;20406;-71
2023/12/28 06:53:59;;;;;;;39.20;20.63;;;;;;;;;;4975421;28;20074;-71
2023/12/28 06:56:25;;;;;;;39.10;19.70;;;;;;;;;;4973853;28;20406;-72
2023/12/28 06:58:50;;;;;;;37.90;19.58;;;;;;;;;;4975103;28;20032;-71
2023/12/28 07:01:18;;;;;;;34.53;20.75;;;;;;;;;;4975002;28;20045;-71
2023/12/28 07:03:43;;;;;;;35.42;18.30;;;;;;;;;;4974974;28;20449;-71
2023/12/28 07:06:09;;;;;;;33.90;18.98;;;;;;;;;;4974909;28;20070;-71
2023/12/28 07:08:36;;;;;;;34.50;20.67;;;;;;;;;;4974845;28;20488;-71
2023/12/28 07:11:03;;;;;;;39.33;18.80;;;;;;;;;;4976517;28;20031;-70
2023/12/28 07:13:29;;;;;;;35.90;19.30;;;;;;;;;;4972508;28;20509;-71
2023/12/28 07:15:55;;;;;;;36.80;18.52;;;;;;;;;;4973927;28;20034;-70
2023/12/28 07:18:20;;;;;;;49.65;21.70;;;;;;;;;;4980915;28;20073;-70
2023/12/28 07:20:46;;;;;;;36.15;19.20;;;;;;;;;;4988439;28;20034;-72
2023/12/28 07:23:12;;;;;;;38.30;20.88;;;;;;;;;;4993424;28;20038;-71
2023/12/28 07:25:37;;;;;;;29.50;18.55;;;;;;;;;;4974752;28;20030;-72
2023/12/28 07:28:03;;;;;;;42.13;20.27;;;;;;;;;;4990364;28;20034;-72
2023/12/28 07:30:29;;;;;;;55.78;20.23;;;;;;;;;;4975408;28;20291;-72
2023/12/28 07:32:55;;;;;;;45.00;20.88;;;;;;;;;;4973992;28;20109;-72
2023/12/28 07:35:20;;;;;;;42.72;21.45;;;;;;;;;;4998678;28;20030;-71
2023/12/28 07:37:47;;;;;;;40.47;22.10;;;;;;;;;;4974692;28;20110;-72
2023/12/28 07:40:13;;;;;;;44.92;23.48;;;;;;;;;;4983212;28;20037;-72
2023/12/28 07:42:39;;;;;;;54.15;24.75;;;;;;;;;;4993383;28;20441;-72
2023/12/28 07:45:05;;;;;;;49.00;24.52;;;;;;;;;;4992414;28;20046;-73
2023/12/28 07:47:33;;;;;;;44.25;24.45;;;;;;;;;;5013495;28;20027;-71
2023/12/28 07:50:00;;;;;;;44.97;23.52;;;;;;;;;;4981075;28;20042;-72
2023/12/28 07:52:26;;;;;;;35.15;21.95;;;;;;;;;;4993548;28;20441;-70
2023/12/28 07:54:51;;;;;;;41.00;24.90;;;;;;;;;;4986677;28;20034;-70
2023/12/28 07:57:18;;;;;;;51.92;29.15;;;;;;;;;;4973148;28;20027;-71
2023/12/28 07:59:44;;;;;;;68.43;34.55;;;;;;;;;;4978443;28;20132;-72
2023/12/28 08:02:09;;;;;;;65.88;35.78;;;;;;;;;;4984178;28;20054;-71
2023/12/28 08:04:35;;;;;;;60.72;35.53;;;;;;;;;;4977337;28;20030;-71
2023/12/28 08:07:01;;;;;;;56.00;34.80;;;;;;;;;;4978856;28;20030;-71
2023/12/28 08:09:26;;;;;;;61.33;35.00;;;;;;;;;;4973539;28;20501;-72
2023/12/28 08:11:52;;;;;;;66.60;34.95;;;;;;;;;;5004490;28;20047;-72
2023/12/28 08:14:19;;;;;;;58.92;34.35;;;;;;;;;;4987932;28;20047;-71
2023/12/28 08:16:44;;;;;;;61.28;35.03;;;;;;;;;;4991852;28;20022;-71
2023/12/28 08:19:10;;;;;;;62.42;37.75;;;;;;;;;;4976719;28;20034;-72
2023/12/28 08:21:36;;;;;;;69.35;36.83;;;;;;;;;;4984548;28;20073;-72
2023/12/28 08:24:02;;;;;;;55.55;34.33;;;;;;;;;;4985810;28;20050;-73
2023/12/28 08:26:28;;;;;;;56.22;34.38;;;;;;;;;;4973357;28;20042;-70
2023/12/28 08:28:54;;;;;;;65.35;35.65;;;;;;;;;;4975134;28;20061;-72
2023/12/28 08:31:20;;;;;;;66.60;35.50;;;;;;;;;;4982357;28;20448;-70
2023/12/28 08:33:45;;;;;;;54.78;33.92;;;;;;;;;;4984474;28;20042;-71
2023/12/28 08:36:11;;;;;;;54.58;33.63;;;;;;;;;;4984162;28;20054;-70
2023/12/28 08:38:38;;;;;;;52.38;33.33;;;;;;;;;;4980868;28;20026;-72
2023/12/28 08:41:08;;;;;;;59.28;31.42;;;;;;;;;;4972429;28;20034;-72
2023/12/28 08:43:36;;;;;;;55.33;31.38;;;;;;;;;;4971103;28;20039;-71
2023/12/28 08:46:02;;;;;;;52.97;29.40;;;;;;;;;;4973669;28;20508;-72
2023/12/28 08:48:28;;;;;;;47.50;30.98;;;;;;;;;;4988373;28;20512;-71
2023/12/28 08:50:54;;;;;;;46.20;30.25;;;;;;;;;;4973309;28;20035;-71
2023/12/28 08:53:19;;;;;;;49.70;30.55;;;;;;;;;;4972747;28;20066;-71
2023/12/28 08:55:45;;;;;;;45.92;28.15;;;;;;;;;;4973647;28;20030;-70
2023/12/28 08:58:10;;;;;;;43.70;28.98;;;;;;;;;;4973371;28;20035;-71
2023/12/28 09:00:36;;;;;;;42.33;28.60;;;;;;;;;;4973382;28;20042;-71
2023/12/28 09:03:02;;;;;;;39.88;25.55;;;;;;;;;;5004239;28;20033;-71
2023/12/28 09:05:28;;;;;;;37.75;23.75;;;;;;;;;;4972947;28;20034;-70
2023/12/28 09:07:54;;;;;;;44.53;24.92;;;;;;;;;;4973632;28;20109;-71
2023/12/28 09:10:20;;;;;;;41.70;25.83;;;;;;;;;;4972536;28;20035;-71
2023/12/28 09:12:46;;;;;;;49.90;28.73;;;;;;;;;;4972716;28;20038;-71
2023/12/28 09:15:12;;;;;;;43.35;25.83;;;;;;;;;;4972456;28;20039;-71
2023/12/28 09:17:39;;;;;;;37.03;25.08;;;;;;;;;;5004039;28;20035;-71
2023/12/28 09:20:06;;;;;;;37.13;22.48;;;;;;;;;;4972695;28;20489;-71
2023/12/28 09:22:32;;;;;;;37.38;23.27;;;;;;;;;;4972938;28;20035;-71
2023/12/28 09:24:57;;;;;;;40.30;24.38;;;;;;;;;;4972551;28;20409;-71
2023/12/28 09:27:23;;;;;;;35.42;23.42;;;;;;;;;;4972830;28;20156;-71
2023/12/28 09:29:48;;;;;;;39.55;24.10;;;;;;;;;;4972979;28;20162;-71
2023/12/28 09:32:16;;;;;;;42.78;23.80;;;;;;;;;;4971460;28;20413;-71
2023/12/28 09:34:43;;;;;;;47.85;26.58;;;;;;;;;;4972864;28;20132;-71
2023/12/28 09:37:08;;;;;;;41.05;25.63;;;;;;;;;;4973053;28;20037;-72
2023/12/28 09:39:34;;;;;;;41.22;25.23;;;;;;;;;;4972926;28;20082;-72
2023/12/28 09:42:09;;;;;;;52.42;27.08;;;;;;;;;;5004044;28;20029;-71
2023/12/28 09:44:38;;;;;;;42.22;25.38;;;;;;;;;;4986527;28;20041;-72
2023/12/28 09:47:06;;;;;;;41.85;25.35;;;;;;;;;;4972696;28;20456;-73
2023/12/28 09:49:33;;;;;;;42.05;23.48;;;;;;;;;;4987801;28;20094;-73
2023/12/28 09:52:00;;;;;;;40.47;23.80;;;;;;;;;;5004254;28;20054;-72
2023/12/28 09:54:25;;;;;;;42.88;25.48;;;;;;;;;;4972489;28;20039;-73
2023/12/28 09:56:52;;;;;;;34.95;23.92;;;;;;;;;;4969428;28;20117;-74
2023/12/28 09:59:20;;;;;;;39.08;23.80;;;;;;;;;;4966527;28;20503;-71
2023/12/28 10:01:47;;;;;;;40.38;23.95;;;;;;;;;;4971703;28;20043;-72
2023/12/28 10:04:13;;;;;;;43.75;24.30;;;;;;;;;;4972767;28;20035;-72
2023/12/28 10:06:39;;;;;;;37.35;24.60;;;;;;;;;;4971073;28;20183;-74
2023/12/28 10:09:07;;;;;;;54.80;26.75;;;;;;;;;;4970928;28;20042;-72
2023/12/28 10:11:33;;;;;;;49.08;24.48;;;;;;;;;;4972268;28;20088;-72
2023/12/28 10:13:59;;;;;;;40.28;23.42;;;;;;;;;;4971531;28;20469;-72
2023/12/28 10:16:25;;;;;;;37.45;24.60;;;;;;;;;;4974676;28;20042;-71
2023/12/28 10:18:51;;;;;;;33.47;23.83;;;;;;;;;;4976383;28;20033;-71
2023/12/28 10:21:17;;;;;;;39.67;23.83;;;;;;;;;;4975556;28;20039;-71
2023/12/28 10:23:45;;;;;;;41.45;25.45;;;;;;;;;;4995279;28;20030;-72
2023/12/28 10:26:12;;;;;;;42.60;25.75;;;;;;;;;;4979694;28;20157;-72
2023/12/28 10:28:39;;;;;;;39.22;27.10;;;;;;;;;;4978985;28;20058;-71
2023/12/28 10:31:05;;;;;;;40.88;25.92;;;;;;;;;;4975892;28;20121;-71
2023/12/28 10:33:41;;;;;;;41.35;25.58;;;;;;;;;;4979459;28;20041;-72
2023/12/28 10:36:08;;;;;;;50.53;27.33;;;;;;;;;;4984219;28;20042;-72
2023/12/28 10:38:39;;;;;;;38.67;24.17;;;;;;;;;;4992495;28;20039;-73
2023/12/28 10:41:10;;;;;;;37.95;25.73;;;;;;;;;;4977796;28;20054;-73
2023/12/28 10:43:57;;;;;;;43.90;26.25;;;;;;;;;;4975639;28;20045;-73
2023/12/28 10:46:27;;;;;;;39.33;25.98;;;;;;;;;;4990727;28;20077;-72
2023/12/28 10:49:05;;;;;;;42.60;26.77;;;;;;;;;;4975354;28;20034;-73
2023/12/28 10:51:34;;;;;;;38.38;23.95;;;;;;;;;;4972773;28;20046;-72
2023/12/28 10:54:23;;;;;;;35.00;23.48;;;;;;;;;;4966397;28;20031;-71
2023/12/28 10:57:29;;;;;;;34.42;22.38;;;;;;;;;;4975356;28;20031;-72
2023/12/28 11:00:25;;;;;;;32.90;23.10;;;;;;;;;;4974051;28;20401;-74
2023/12/28 11:02:53;;;;;;;32.55;22.17;;;;;;;;;;4975480;28;20050;-72
2023/12/28 11:05:23;;;;;;;38.05;23.88;;;;;;;;;;4975751;28;20113;-73
2023/12/28 11:07:53;;;;;;;33.20;23.17;;;;;;;;;;4975637;28;20342;-71
2023/12/28 11:10:24;;;;;;;32.10;19.98;;;;;;;;;;4977110;28;20489;-72
2023/12/28 11:12:54;;;;;;;35.70;23.08;;;;;;;;;;4979065;28;20038;-72
2023/12/28 11:15:20;;;;;;;33.42;19.73;;;;;;;;;;4974492;28;20049;-73
2023/12/28 11:17:46;;;;;;;36.75;22.67;;;;;;;;;;4977103;28;20110;-72
2023/12/28 11:20:13;;;;;;;31.58;20.48;;;;;;;;;;4974487;28;20062;-72
2023/12/28 11:22:40;;;;;;;26.77;18.95;;;;;;;;;;4989992;28;20097;-73
2023/12/28 11:25:06;;;;;;;28.20;18.95;;;;;;;;;;4972985;28;20105;-72
2023/12/28 11:27:36;;;;;;;36.55;19.92;;;;;;;;;;4974470;28;20117;-73
2023/12/28 11:30:04;;;;;;;35.75;19.90;;;;;;;;;;5005587;28;20073;-73
2023/12/28 11:32:36;;;;;;;38.40;21.67;;;;;;;;;;4975243;28;20058;-72
2023/12/28 11:35:02;;;;;;;38.40;20.20;;;;;;;;;;4975254;28;20046;-73
2023/12/28 11:37:29;;;;;;;33.42;20.63;;;;;;;;;;4975120;28;20034;-73
2023/12/28 11:39:57;;;;;;;39.53;19.85;;;;;;;;;;4975906;28;20058;-72
2023/12/28 11:42:23;;;;;;;34.95;21.00;;;;;;;;;;4974601;28;20061;-72
2023/12/28 11:44:54;;;;;;;30.48;19.10;;;;;;;;;;4974749;28;20437;-72
2023/12/28 11:47:27;;;;;;;31.33;19.33;;;;;;;;;;4974682;28;20110;-73
2023/12/28 11:49:54;;;;;;;30.05;17.92;;;;;;;;;;4989457;28;20047;-72
2023/12/28 11:52:31;;;;;;;29.63;17.75;;;;;;;;;;4974553;28;20107;-73
2023/12/28 11:54:59;;;;;;;27.77;18.05;;;;;;;;;;4973555;28;20086;-73
2023/12/28 11:57:25;;;;;;;28.58;16.80;;;;;;;;;;4973787;28;20548;-71
2023/12/28 11:59:57;;;;;;;31.73;16.65;;;;;;;;;;4973896;28;20042;-71
2023/12/28 12:02:24;;;;;;;27.50;16.15;;;;;;;;;;4974500;28;20096;-71
2023/12/28 12:04:49;;;;;;;33.55;16.77;;;;;;;;;;4974009;28;20126;-72
2023/12/28 12:07:15;;;;;;;26.65;15.43;;;;;;;;;;4988917;28;20050;-72
2023/12/28 12:09:41;;;;;;;24.23;16.05;;;;;;;;;;4973978;28;20154;-72
2023/12/28 12:12:09;;;;;;;25.45;16.38;;;;;;;;;;4974574;28;20111;-72
2023/12/28 12:14:35;;;;;;;25.88;16.70;;;;;;;;;;4972127;28;20541;-72
2023/12/28 12:17:02;;;;;;;25.15;16.27;;;;;;;;;;4973774;28;20652;-72
2023/12/28 12:19:28;;;;;;;25.50;16.48;;;;;;;;;;4973822;28;20105;-71
2023/12/28 12:21:55;;;;;;;24.50;15.18;;;;;;;;;;4973373;28;20524;-72
2023/12/28 12:24:21;;;;;;;22.08;15.07;;;;;;;;;;4972952;28;20485;-72
2023/12/28 12:26:47;;;;;;;23.80;15.43;;;;;;;;;;4972144;28;20037;-72
2023/12/28 12:29:16;;;;;;;25.85;15.90;;;;;;;;;;4974120;28;20493;-72
2023/12/28 12:31:43;;;;;;;30.55;17.13;;;;;;;;;;4974022;28;20043;-72
2023/12/28 12:34:15;;;;;;;27.60;15.63;;;;;;;;;;4972775;28;20450;-73
2023/12/28 12:36:41;;;;;;;27.95;17.42;;;;;;;;;;4974497;28;20046;-72
2023/12/28 12:39:07;;;;;;;28.92;16.23;;;;;;;;;;4973141;28;20118;-72
2023/12/28 12:41:34;;;;;;;31.55;16.95;;;;;;;;;;4971995;28;20036;-72
2023/12/28 12:44:00;;;;;;;24.90;16.35;;;;;;;;;;4973097;28;20049;-71
2023/12/28 12:46:27;;;;;;;29.35;16.92;;;;;;;;;;4973781;28;20106;-72
2023/12/28 12:49:00;;;;;;;25.73;16.67;;;;;;;;;;4973784;28;20089;-73
2023/12/28 12:51:26;;;;;;;37.85;18.45;;;;;;;;;;4973500;28;20516;-71
2023/12/28 12:53:59;;;;;;;28.23;18.17;;;;;;;;;;4971951;28;20046;-71
2023/12/28 12:56:27;;;;;;;33.88;19.23;;;;;;;;;;4973314;28;20118;-71
2023/12/28 12:58:54;;;;;;;28.77;18.08;;;;;;;;;;4973481;28;20057;-72
2023/12/28 13:01:21;;;;;;;46.08;20.30;;;;;;;;;;4973463;28;20101;-72
2023/12/28 13:03:46;;;;;;;34.03;18.35;;;;;;;;;;4972828;28;20041;-72
2023/12/28 13:06:13;;;;;;;26.92;15.55;;;;;;;;;;4973222;28;20034;-71
2023/12/28 13:08:39;;;;;;;31.00;16.80;;;;;;;;;;4972918;28;20058;-71
2023/12/28 13:11:09;;;;;;;32.15;16.17;;;;;;;;;;4973985;28;20054;-71
2023/12/28 13:13:36;;;;;;;26.63;16.40;;;;;;;;;;4973263;28;20126;-71
2023/12/28 13:16:03;;;;;;;34.63;15.80;;;;;;;;;;4987812;28;20084;-73
2023/12/28 13:18:28;;;;;;;27.90;16.35;;;;;;;;;;4972810;28;20053;-72
2023/12/28 13:20:56;;;;;;;28.10;14.75;;;;;;;;;;4973084;28;20082;-72
2023/12/28 13:23:22;;;;;;;24.85;15.50;;;;;;;;;;4973598;28;20452;-73
2023/12/28 13:25:47;;;;;;;24.05;14.95;;;;;;;;;;4973275;28;20030;-72
2023/12/28 13:28:15;;;;;;;21.70;14.55;;;;;;;;;;4973057;28;20593;-73
2023/12/28 13:30:41;;;;;;;27.15;15.68;;;;;;;;;;4973417;28;20110;-72
2023/12/28 13:33:06;;;;;;;23.02;15.05;;;;;;;;;;4974797;28;20047;-73
2023/12/28 13:35:33;;;;;;;23.08;15.02;;;;;;;;;;4972449;28;20118;-73
2023/12/28 13:38:03;;;;;;;24.67;14.95;;;;;;;;;;4973872;28;20093;-72
2023/12/28 13:40:31;;;;;;;28.05;15.93;;;;;;;;;;4973058;28;20456;-73
2023/12/28 13:42:56;;;;;;;29.35;14.80;;;;;;;;;;4973210;28;20389;-72
2023/12/28 13:45:22;;;;;;;30.02;17.08;;;;;;;;;;4972514;28;20042;-72
2023/12/28 13:47:51;;;;;;;28.17;16.10;;;;;;;;;;4972588;28;20045;-73
2023/12/28 13:50:17;;;;;;;26.95;14.82;;;;;;;;;;4972579;28;20045;-73
2023/12/28 13:52:42;;;;;;;21.95;13.00;;;;;;;;;;4972681;28;20417;-73
2023/12/28 13:55:11;;;;;;;28.73;17.50;;;;;;;;;;4972916;28;20031;-73
2023/12/28 13:57:37;;;;;;;25.25;15.13;;;;;;;;;;4972841;28;20058;-72
2023/12/28 14:00:05;;;;;;;25.23;15.23;;;;;;;;;;4972522;28;20511;-73
2023/12/28 14:02:38;;;;;;;19.75;13.15;;;;;;;;;;4972909;28;20046;-73
2023/12/28 14:05:04;;;;;;;24.67;13.57;;;;;;;;;;4972732;28;20397;-73
2023/12/28 14:07:29;;;;;;;15.60;10.18;;;;;;;;;;4972544;28;20076;-73
2023/12/28 14:09:55;;;;;;;17.05;10.80;;;;;;;;;;5003630;28;20038;-73
2023/12/28 14:12:21;;;;;;;21.70;12.32;;;;;;;;;;4971852;28;20041;-73
2023/12/28 14:14:46;;;;;;;20.45;11.82;;;;;;;;;;4972378;28;20426;-72